Hatton, North Dakota
Current Conditions -  °F | °C
As of 10:32 AM on Wednesday 26 Nov 2014 (Local Time) from KRDR Reporting Station
Light Snow Light Snow  
Wind Chill: -20°   Ceiling: 10000
Heat Index:   Visibility: 10mi
Dew Point: -8°   Wind: 15mph
Humidity: 72%   Direction: 10°N
Pressure: 30.45"   Gusts: NA
Location:  47.64°N, 97.45°W
Report Text: KRDR 261632Z AUTO 01013KT 10SM -SN BKN100 M18/M22 A3045 RMK AO2
Loading
Personal Weather Stations






























Interactive Weather Map New forecast layout! Learn more

10-Day Weather Forecast

Advertisements
Track Severe Weather on mobile